createdAt,value
2019-05-15T00:00:11.146Z,5.6409
2019-05-15T00:00:19.843Z,5.6308
2019-05-15T00:00:32.596Z,5.6308
2019-05-15T00:00:40.209Z,5.6509
2019-05-15T00:00:49.895Z,5.6509
2019-05-15T00:00:59.564Z,5.6711
2019-05-15T00:01:09.255Z,5.6509
2019-05-15T00:01:21.146Z,5.6711
2019-05-15T00:01:30.845Z,5.6711
2019-05-15T00:01:41.581Z,5.6509
2019-05-15T00:01:50.285Z,5.6509
2019-05-15T00:01:59.967Z,5.6509
2019-05-15T00:02:10.845Z,5.6409
2019-05-15T00:02:20.765Z,5.6308
2019-05-15T00:02:30.471Z,5.6409
2019-05-15T00:02:40.191Z,5.6409
2019-05-15T00:02:49.876Z,5.6509
2019-05-15T00:02:59.603Z,5.6509
2019-05-15T00:03:10.575Z,5.6409
2019-05-15T00:03:20.280Z,5.6711
2019-05-15T00:03:29.981Z,5.6308
2019-05-15T00:03:40.651Z,5.6107
2019-05-15T00:03:50.323Z,5.6006
2019-05-15T00:04:00.006Z,5.5804
2019-05-15T00:04:09.716Z,5.5603
2019-05-15T00:04:19.373Z,5.5603
2019-05-15T00:04:31.275Z,5.5603
2019-05-15T00:04:42.035Z,5.5603
2019-05-15T00:04:51.135Z,5.5603
2019-05-15T00:05:00.787Z,5.5704
2019-05-15T00:05:10.447Z,5.5603
2019-05-15T00:05:20.107Z,5.5804
2019-05-15T00:05:29.819Z,5.5804
2019-05-15T00:05:39.541Z,5.6107
2019-05-15T00:05:49.753Z,5.6107
2019-05-15T00:05:59.531Z,5.6107
2019-05-15T00:06:09.226Z,5.6107
2019-05-15T00:06:21.096Z,5.5704
2019-05-15T00:06:30.814Z,5.5402
2019-05-15T00:06:40.495Z,5.5603
2019-05-15T00:06:50.168Z,5.5402
2019-05-15T00:06:59.837Z,5.5301
2019-05-15T00:07:09.510Z,5.5402
2019-05-15T00:07:21.399Z,5.5402
2019-05-15T00:07:31.079Z,5.5402
2019-05-15T00:07:39.785Z,5.5402
2019-05-15T00:07:49.498Z,5.5603
2019-05-15T00:07:59.365Z,5.5603
2019-05-15T00:08:11.279Z,5.5603
2019-05-15T00:08:21.984Z,5.5704
2019-05-15T00:08:29.517Z,5.5804
2019-05-15T00:08:40.279Z,5.5804
2019-05-15T00:08:50.142Z,5.6006
2019-05-15T00:09:01.063Z,5.5603
2019-05-15T00:09:10.783Z,5.5402
2019-05-15T00:09:20.475Z,5.5301
2019-05-15T00:09:30.176Z,5.5099
2019-05-15T00:09:41.936Z,5.5099
2019-05-15T00:09:49.568Z,5.5301
2019-05-15T00:09:59.536Z,5.5099
2019-05-15T00:10:10.248Z,5.4898
2019-05-15T00:10:19.979Z,5.5301
2019-05-15T00:10:29.683Z,5.5301
2019-05-15T00:10:39.582Z,5.5099
2019-05-15T00:10:50.326Z,5.5603
2019-05-15T00:11:00.017Z,5.5804
2019-05-15T00:11:10.693Z,5.5804
2019-05-15T00:11:21.398Z,5.5804
2019-05-15T00:11:31.118Z,5.6006
2019-05-15T00:11:40.839Z,5.6006
2019-05-15T00:11:54.936Z,5.6308
2019-05-15T00:11:59.650Z,5.6409
2019-05-15T00:12:09.351Z,5.6308
2019-05-15T00:12:21.213Z,5.6409
2019-05-15T00:12:39.842Z,5.6409
2019-05-15T00:12:49.581Z,5.6409
2019-05-15T00:13:02.094Z,5.6409
2019-05-15T00:13:09.662Z,5.6308
2019-05-15T00:13:19.378Z,5.6308
2019-05-15T00:13:31.196Z,5.6107
2019-05-15T00:13:40.879Z,5.6107
2019-05-15T00:13:50.554Z,5.6006
2019-05-15T00:14:00.232Z,5.5704
2019-05-15T00:14:09.941Z,5.5704
2019-05-15T00:14:22.890Z,5.5301
2019-05-15T00:14:29.867Z,5.5402
2019-05-15T00:14:39.569Z,5.5099
2019-05-15T00:14:49.255Z,5.5099
2019-05-15T00:15:04.290Z,5.4797
2019-05-15T00:15:11.198Z,5.4898
2019-05-15T00:15:21.047Z,5.4898
2019-05-15T00:15:30.705Z,5.4797
2019-05-15T00:15:40.524Z,5.4797
2019-05-15T00:15:50.249Z,5.4495
2019-05-15T00:15:59.951Z,5.4596
2019-05-15T00:16:09.649Z,5.4596
2019-05-15T00:16:19.372Z,5.4898
2019-05-15T00:16:31.239Z,5.4898
2019-05-15T00:16:40.940Z,5.5099
2019-05-15T00:16:50.600Z,5.5301
2019-05-15T00:17:00.289Z,5.5301
2019-05-15T00:17:09.986Z,5.5301
2019-05-15T00:17:19.685Z,5.5402
2019-05-15T00:17:29.382Z,5.5402
2019-05-15T00:17:39.709Z,5.5301
2019-05-15T00:17:49.437Z,5.5402
2019-05-15T00:18:01.329Z,5.5402
2019-05-15T00:18:11.055Z,5.5402
2019-05-15T00:18:20.728Z,5.5402
2019-05-15T00:18:31.435Z,5.5402
2019-05-15T00:18:41.152Z,5.5402
2019-05-15T00:18:50.953Z,5.5402
2019-05-15T00:19:00.670Z,5.5402
2019-05-15T00:19:09.429Z,5.5402
2019-05-15T00:19:21.332Z,5.5402
2019-05-15T00:19:31.028Z,5.5301
2019-05-15T00:19:40.866Z,5.5301
2019-05-15T00:19:50.570Z,5.4898
2019-05-15T00:20:00.230Z,5.4596
2019-05-15T00:20:10.247Z,5.4294
2019-05-15T00:20:20.359Z,5.4193
2019-05-15T00:20:30.106Z,5.4294
2019-05-15T00:20:39.836Z,5.4294
2019-05-15T00:20:49.883Z,5.4495
2019-05-15T00:20:59.632Z,5.4294
2019-05-15T00:21:09.555Z,5.4294
2019-05-15T00:21:19.299Z,5.4294
2019-05-15T00:21:31.169Z,5.4294
2019-05-15T00:21:40.867Z,5.4294
2019-05-15T00:21:50.575Z,5.4294
2019-05-15T00:22:00.295Z,5.4294
2019-05-15T00:22:10.009Z,5.4294
2019-05-15T00:22:19.755Z,5.4294
2019-05-15T00:22:29.502Z,5.4495
2019-05-15T00:22:40.415Z,5.4294
2019-05-15T00:22:50.075Z,5.4596
2019-05-15T00:22:59.769Z,5.4797
2019-05-15T00:23:09.531Z,5.4596
2019-05-15T00:23:21.414Z,5.4596
2019-05-15T00:23:31.095Z,5.4596
2019-05-15T00:23:40.845Z,5.4596
2019-05-15T00:23:59.225Z,5.4495
2019-05-15T00:24:13.175Z,5.4495
2019-05-15T00:24:20.932Z,5.4193
2019-05-15T00:24:30.646Z,5.4294
2019-05-15T00:24:40.348Z,5.4193
2019-05-15T00:24:50.028Z,5.3790
2019-05-15T00:24:59.736Z,5.3790
2019-05-15T00:25:09.592Z,5.3589
2019-05-15T00:25:22.733Z,5.3790
2019-05-15T00:25:30.407Z,5.3790
2019-05-15T00:25:41.111Z,5.3891
2019-05-15T00:25:50.839Z,5.3891
2019-05-15T00:26:00.540Z,5.3992
2019-05-15T00:26:10.249Z,5.4294
2019-05-15T00:26:19.915Z,5.4294
2019-05-15T00:26:30.113Z,5.4294
2019-05-15T00:26:39.866Z,5.4294
2019-05-15T00:26:49.526Z,5.4596
2019-05-15T00:26:59.236Z,5.4797
2019-05-15T00:27:11.169Z,5.5099
2019-05-15T00:27:21.115Z,5.5301
2019-05-15T00:27:30.800Z,5.5603
2019-05-15T00:27:40.473Z,5.5603
2019-05-15T00:27:50.190Z,5.5603
2019-05-15T00:27:59.882Z,5.5704
2019-05-15T00:28:09.889Z,5.5804
2019-05-15T00:28:19.600Z,5.6107
2019-05-15T00:28:29.285Z,5.6308
2019-05-15T00:28:39.975Z,5.6509
2019-05-15T00:28:49.683Z,5.6409
2019-05-15T00:29:11.575Z,5.6509
2019-05-15T00:29:15.769Z,5.6812
2019-05-15T00:29:20.648Z,5.6812
2019-05-15T00:29:30.319Z,5.7114
2019-05-15T00:29:39.988Z,5.7416
2019-05-15T00:29:49.781Z,5.7416
2019-05-15T00:29:59.458Z,5.7416
2019-05-15T00:30:11.300Z,5.7516
2019-05-15T00:30:20.989Z,5.7516
2019-05-15T00:30:29.477Z,5.7617
2019-05-15T00:30:41.368Z,5.7617
2019-05-15T00:30:51.067Z,5.7617
2019-05-15T00:30:59.597Z,5.7617
2019-05-15T00:31:09.312Z,5.7617
2019-05-15T00:31:21.197Z,5.7416
2019-05-15T00:31:30.915Z,5.7819
2019-05-15T00:31:40.619Z,5.7617
2019-05-15T00:31:50.329Z,5.7617
2019-05-15T00:32:00.181Z,5.7819
2019-05-15T00:32:10.065Z,5.7819
2019-05-15T00:32:19.739Z,5.7516
2019-05-15T00:32:29.388Z,5.7516
2019-05-15T00:32:41.247Z,5.7516
2019-05-15T00:32:50.978Z,5.7617
2019-05-15T00:33:00.684Z,5.7416
2019-05-15T00:33:19.485Z,5.7214
2019-05-15T00:33:29.227Z,5.6812
2019-05-15T00:33:41.118Z,5.7214
2019-05-15T00:33:49.825Z,5.7416
2019-05-15T00:33:59.517Z,5.7416
2019-05-15T00:34:12.866Z,5.7416
2019-05-15T00:34:19.541Z,5.7416
2019-05-15T00:34:30.431Z,5.7516
2019-05-15T00:34:41.149Z,5.7214
2019-05-15T00:34:50.829Z,5.7214
2019-05-15T00:35:00.489Z,5.7214
2019-05-15T00:35:10.193Z,5.6812
2019-05-15T00:35:20.175Z,5.6509
2019-05-15T00:35:39.839Z,5.6409
2019-05-15T00:35:49.597Z,5.6308
2019-05-15T00:35:59.395Z,5.6308
2019-05-15T00:36:10.100Z,5.6107
2019-05-15T00:36:19.775Z,5.6409
2019-05-15T00:36:29.499Z,5.6308
2019-05-15T00:36:41.386Z,5.6308
2019-05-15T00:36:51.147Z,5.6107
2019-05-15T00:36:59.841Z,5.6006
2019-05-15T00:37:09.580Z,5.6107
2019-05-15T00:37:20.286Z,5.6006
2019-05-15T00:37:31.197Z,5.6006
2019-05-15T00:37:40.880Z,5.5804
2019-05-15T00:37:50.590Z,5.5704
2019-05-15T00:38:00.277Z,5.5804
2019-05-15T00:38:10.970Z,5.5804
2019-05-15T00:38:20.666Z,5.6006
2019-05-15T00:38:30.390Z,5.6006
2019-05-15T00:38:40.150Z,5.5804
2019-05-15T00:38:49.840Z,5.6006
2019-05-15T00:39:05.016Z,5.6107
2019-05-15T00:39:09.698Z,5.6107
2019-05-15T00:39:19.362Z,5.6107
2019-05-15T00:39:31.232Z,5.6006
2019-05-15T00:39:40.919Z,5.6006
2019-05-15T00:39:50.610Z,5.5804
2019-05-15T00:40:00.265Z,5.5704
2019-05-15T00:40:12.128Z,5.5804
2019-05-15T00:40:19.662Z,5.5603
2019-05-15T00:40:29.308Z,5.5704
2019-05-15T00:40:41.172Z,5.5603
2019-05-15T00:40:50.908Z,5.5704
2019-05-15T00:41:00.589Z,5.5704
2019-05-15T00:41:10.273Z,5.5804
2019-05-15T00:41:19.972Z,5.5704
2019-05-15T00:41:29.653Z,5.5704
2019-05-15T00:41:50.322Z,5.5704
2019-05-15T00:41:54.289Z,5.5704
2019-05-15T00:41:59.943Z,5.5804
2019-05-15T00:42:09.619Z,5.6006
2019-05-15T00:42:19.293Z,5.5804
2019-05-15T00:42:30.155Z,5.5804
2019-05-15T00:42:39.845Z,5.6006
2019-05-15T00:42:49.631Z,5.6107
2019-05-15T00:42:59.476Z,5.6006
2019-05-15T00:43:11.345Z,5.6107
2019-05-15T00:43:24.250Z,5.6107
2019-05-15T00:43:31.125Z,5.6308
2019-05-15T00:43:40.876Z,5.6107
2019-05-15T00:43:59.269Z,5.6308
2019-05-15T00:44:11.066Z,5.6107
2019-05-15T00:44:20.757Z,5.6409
2019-05-15T00:44:30.472Z,5.6409
2019-05-15T00:44:41.230Z,5.6409
2019-05-15T00:44:59.591Z,5.6308
2019-05-15T00:45:09.711Z,5.6107
2019-05-15T00:45:19.473Z,5.5804
2019-05-15T00:45:31.301Z,5.5804
2019-05-15T00:45:44.569Z,5.5704
2019-05-15T00:45:49.911Z,5.5603
2019-05-15T00:45:59.604Z,5.5603
2019-05-15T00:46:09.447Z,5.5402
2019-05-15T00:46:21.313Z,5.5301
2019-05-15T00:46:40.512Z,5.5099
2019-05-15T00:46:50.192Z,5.4898
2019-05-15T00:46:59.892Z,5.5099
2019-05-15T00:47:10.439Z,5.5099
2019-05-15T00:47:20.331Z,5.5099
2019-05-15T00:47:30.004Z,5.5099
2019-05-15T00:47:39.995Z,5.5301
2019-05-15T00:47:49.649Z,5.5099
2019-05-15T00:47:59.335Z,5.5099
2019-05-15T00:48:11.219Z,5.4898
2019-05-15T00:48:20.924Z,5.4797
2019-05-15T00:48:29.428Z,5.4797
2019-05-15T00:48:41.299Z,5.4495
2019-05-15T00:48:51.255Z,5.4596
2019-05-15T00:49:01.990Z,5.4495
2019-05-15T00:49:09.496Z,5.4495
2019-05-15T00:49:21.381Z,5.4294
2019-05-15T00:49:31.101Z,5.4294
2019-05-15T00:49:40.829Z,5.4193
2019-05-15T00:49:51.511Z,5.3891
2019-05-15T00:50:01.202Z,5.3790
2019-05-15T00:50:10.934Z,5.3589
2019-05-15T00:50:20.629Z,5.3488
2019-05-15T00:50:33.734Z,5.3589
2019-05-15T00:50:40.630Z,5.3790
2019-05-15T00:50:50.306Z,5.3589
2019-05-15T00:50:59.958Z,5.3589
2019-05-15T00:51:10.807Z,5.3589
2019-05-15T00:51:20.497Z,5.3589
2019-05-15T00:51:30.219Z,5.3488
2019-05-15T00:51:39.970Z,5.3287
2019-05-15T00:51:49.680Z,5.3488
2019-05-15T00:51:59.365Z,5.3488
2019-05-15T00:52:12.235Z,5.3790
2019-05-15T00:52:19.916Z,5.3891
2019-05-15T00:52:29.600Z,5.3891
2019-05-15T00:52:39.450Z,5.3992
2019-05-15T00:52:51.305Z,5.4193
2019-05-15T00:53:01.009Z,5.4294
2019-05-15T00:53:10.679Z,5.4294
2019-05-15T00:53:20.369Z,5.4294
2019-05-15T00:53:30.068Z,5.4495
2019-05-15T00:53:39.804Z,5.4495
2019-05-15T00:53:49.505Z,5.4797
2019-05-15T00:54:01.390Z,5.4797
2019-05-15T00:54:11.186Z,5.4898
2019-05-15T00:54:20.871Z,5.4596
2019-05-15T00:54:30.537Z,5.4898
2019-05-15T00:54:40.245Z,5.4898
2019-05-15T00:54:49.915Z,5.4797
2019-05-15T00:54:59.620Z,5.4596
2019-05-15T00:55:09.390Z,5.4596
2019-05-15T00:55:21.220Z,5.4495
2019-05-15T00:55:30.912Z,5.4294
2019-05-15T00:55:49.310Z,5.4495
2019-05-15T00:56:01.172Z,5.4294
2019-05-15T00:56:09.828Z,5.4193
2019-05-15T00:56:19.672Z,5.3992
2019-05-15T00:56:29.370Z,5.3891
2019-05-15T00:56:41.228Z,5.3992
2019-05-15T00:56:50.961Z,5.3790
2019-05-15T00:57:00.647Z,5.3488
2019-05-15T00:57:10.308Z,5.3488
2019-05-15T00:57:21.179Z,5.3488
2019-05-15T00:57:30.906Z,5.3488
2019-05-15T00:57:41.577Z,5.3488
2019-05-15T00:57:50.094Z,5.3589
2019-05-15T00:57:59.798Z,5.3589
2019-05-15T00:58:09.530Z,5.3589
2019-05-15T00:58:20.041Z,5.3589
2019-05-15T00:58:29.909Z,5.3589
2019-05-15T00:58:40.342Z,5.3589
2019-05-15T00:58:50.098Z,5.3589
2019-05-15T00:58:59.872Z,5.3085
2019-05-15T00:59:16.539Z,5.2985
2019-05-15T00:59:26.310Z,5.2682
2019-05-15T00:59:30.752Z,5.2682
2019-05-15T00:59:40.451Z,5.2481
2019-05-15T00:59:50.107Z,5.2179
2019-05-15T01:00:00.982Z,5.1978
2019-05-15T01:00:10.673Z,5.2078
2019-05-15T01:00:20.343Z,5.1978
2019-05-15T01:00:40.898Z,5.2078
2019-05-15T01:00:50.621Z,5.2179
2019-05-15T01:01:00.264Z,5.2179
2019-05-15T01:01:09.963Z,5.2380
2019-05-15T01:01:19.690Z,5.2481
2019-05-15T01:01:29.370Z,5.2682
2019-05-15T01:01:41.251Z,5.2481
2019-05-15T01:01:49.817Z,5.2481
2019-05-15T01:02:00.518Z,5.2481
2019-05-15T01:02:10.220Z,5.2682
2019-05-15T01:02:19.926Z,5.2481
2019-05-15T01:02:29.596Z,5.2682
2019-05-15T01:02:39.274Z,5.2985
2019-05-15T01:02:51.197Z,5.3085
2019-05-15T01:03:04.268Z,5.2985
2019-05-15T01:03:09.220Z,5.2985
2019-05-15T01:03:21.054Z,5.2985
2019-05-15T01:03:39.383Z,5.3287
2019-05-15T01:03:52.849Z,5.3287
2019-05-15T01:04:05.255Z,5.3589
2019-05-15T01:04:09.749Z,5.3589
2019-05-15T01:04:19.413Z,5.3287
2019-05-15T01:04:31.267Z,5.3287
2019-05-15T01:04:40.960Z,5.2985
2019-05-15T01:04:50.646Z,5.2985
2019-05-15T01:05:00.337Z,5.2985
2019-05-15T01:05:10.031Z,5.2783
2019-05-15T01:05:20.747Z,5.2682
2019-05-15T01:05:30.438Z,5.2481
2019-05-15T01:05:40.130Z,5.2783
2019-05-15T01:05:50.838Z,5.2783
2019-05-15T01:06:00.564Z,5.2783
2019-05-15T01:06:10.249Z,5.2682
2019-05-15T01:06:19.964Z,5.2481
2019-05-15T01:06:30.698Z,5.2481
2019-05-15T01:06:39.547Z,5.2179
2019-05-15T01:06:52.759Z,5.2179
2019-05-15T01:07:00.416Z,5.2179
2019-05-15T01:07:10.115Z,5.2078
2019-05-15T01:07:19.778Z,5.2078
2019-05-15T01:07:29.449Z,5.1978
2019-05-15T01:07:40.316Z,5.1776
2019-05-15T01:07:50.057Z,5.1978
2019-05-15T01:07:59.740Z,5.1675
2019-05-15T01:08:09.427Z,5.1474
2019-05-15T01:08:21.330Z,5.1172
2019-05-15T01:08:31.020Z,5.1273
2019-05-15T01:08:40.736Z,5.0970
2019-05-15T01:08:50.513Z,5.0970
2019-05-15T01:09:00.167Z,5.0970
2019-05-15T01:09:09.898Z,5.0970
2019-05-15T01:09:19.564Z,5.1172
2019-05-15T01:09:29.354Z,5.0970
2019-05-15T01:09:41.239Z,5.0870
2019-05-15T01:09:50.991Z,5.0870
2019-05-15T01:09:59.498Z,5.0668
2019-05-15T01:10:11.358Z,5.0568
2019-05-15T01:10:21.075Z,5.0266
2019-05-15T01:10:31.871Z,5.0366
2019-05-15T01:10:40.947Z,5.0366
2019-05-15T01:10:50.635Z,5.0568
2019-05-15T01:11:00.298Z,5.0668
2019-05-15T01:11:09.963Z,5.0870
2019-05-15T01:11:19.621Z,5.1474
2019-05-15T01:11:29.290Z,5.1675
2019-05-15T01:11:41.152Z,5.1978
2019-05-15T01:11:50.834Z,5.1978
2019-05-15T01:12:01.501Z,5.2078
2019-05-15T01:12:11.172Z,5.2078
2019-05-15T01:12:19.684Z,5.2078
2019-05-15T01:12:29.374Z,5.1978
2019-05-15T01:12:41.222Z,5.2078
2019-05-15T01:12:50.915Z,5.1978
2019-05-15T01:13:00.566Z,5.1675
2019-05-15T01:13:10.264Z,5.1675
2019-05-15T01:13:19.910Z,5.1675
2019-05-15T01:13:29.598Z,5.1675
2019-05-15T01:13:39.282Z,5.1978
2019-05-15T01:13:51.154Z,5.1675
2019-05-15T01:14:01.860Z,5.1675
2019-05-15T01:14:12.164Z,5.1675
2019-05-15T01:14:19.837Z,5.1776
2019-05-15T01:14:29.535Z,5.1776
2019-05-15T01:14:39.231Z,5.1776
2019-05-15T01:14:51.111Z,5.1474
2019-05-15T01:15:00.814Z,5.1474
2019-05-15T01:15:10.520Z,5.1675
2019-05-15T01:15:20.177Z,5.1675
2019-05-15T01:15:29.924Z,5.1474
2019-05-15T01:15:49.282Z,5.1675
2019-05-15T01:16:01.103Z,5.1474
2019-05-15T01:16:10.825Z,5.1675
2019-05-15T01:16:20.494Z,5.1675
2019-05-15T01:16:30.151Z,5.1474
2019-05-15T01:16:39.820Z,5.1474
2019-05-15T01:16:49.523Z,5.1675
2019-05-15T01:17:01.364Z,5.1776
2019-05-15T01:17:11.106Z,5.1776
2019-05-15T01:17:21.806Z,5.1978
2019-05-15T01:17:29.301Z,5.1978
2019-05-15T01:17:49.886Z,5.1776
2019-05-15T01:18:09.788Z,5.1978
2019-05-15T01:18:19.618Z,5.1978
2019-05-15T01:18:29.361Z,5.2078
2019-05-15T01:18:41.217Z,5.1978
2019-05-15T01:18:50.935Z,5.2078
2019-05-15T01:19:10.301Z,5.2078
2019-05-15T01:19:21.003Z,5.2078
2019-05-15T01:19:30.735Z,5.2078
2019-05-15T01:19:40.751Z,5.2078
2019-05-15T01:19:50.473Z,5.1978
2019-05-15T01:20:00.182Z,5.1978
2019-05-15T01:20:09.956Z,5.1776
2019-05-15T01:20:19.676Z,5.1978
2019-05-15T01:20:29.384Z,5.1776
2019-05-15T01:20:41.275Z,5.2078
2019-05-15T01:20:49.546Z,5.1978
2019-05-15T01:20:59.391Z,5.2078
2019-05-15T01:21:10.121Z,5.2179
2019-05-15T01:21:19.893Z,5.2179
2019-05-15T01:21:29.584Z,5.2481
2019-05-15T01:21:39.281Z,5.2682
2019-05-15T01:21:51.133Z,5.2783
2019-05-15T01:21:59.845Z,5.2783
2019-05-15T01:22:09.599Z,5.3085
2019-05-15T01:22:19.620Z,5.3085
2019-05-15T01:22:29.384Z,5.3287
2019-05-15T01:22:41.257Z,5.3287
2019-05-15T01:22:50.944Z,5.3085
2019-05-15T01:23:00.645Z,5.2985
2019-05-15T01:23:10.332Z,5.2985
2019-05-15T01:23:21.014Z,5.3085
2019-05-15T01:23:30.735Z,5.2985
2019-05-15T01:23:40.432Z,5.2783
2019-05-15T01:23:50.158Z,5.2985
2019-05-15T01:23:59.872Z,5.2985
2019-05-15T01:24:09.554Z,5.2985
2019-05-15T01:24:19.276Z,5.2985
2019-05-15T01:24:31.180Z,5.2985
2019-05-15T01:24:41.896Z,5.2985
2019-05-15T01:24:49.405Z,5.2985
2019-05-15T01:25:01.265Z,5.2985
2019-05-15T01:25:11.045Z,5.3085
2019-05-15T01:25:20.742Z,5.3287
2019-05-15T01:25:30.432Z,5.3488
2019-05-15T01:25:40.161Z,5.3287
2019-05-15T01:25:49.854Z,5.3488
2019-05-15T01:25:59.555Z,5.3589
2019-05-15T01:26:09.247Z,5.3891
2019-05-15T01:26:28.200Z,5.3891
2019-05-15T01:26:32.113Z,5.3891
2019-05-15T01:26:39.932Z,5.3790
2019-05-15T01:26:50.822Z,5.3891
2019-05-15T01:27:00.484Z,5.3992
2019-05-15T01:27:10.151Z,5.3891
2019-05-15T01:27:19.830Z,5.3992
2019-05-15T01:27:29.511Z,5.3992
2019-05-15T01:27:40.203Z,5.3992
2019-05-15T01:27:51.087Z,5.4294
2019-05-15T01:28:00.760Z,5.4294
2019-05-15T01:28:10.476Z,5.4294
2019-05-15T01:28:20.192Z,5.4495
2019-05-15T01:28:29.844Z,5.4596
2019-05-15T01:28:39.553Z,5.4596
2019-05-15T01:28:49.589Z,5.4596
2019-05-15T01:28:59.465Z,5.4797
2019-05-15T01:29:10.240Z,5.4495
2019-05-15T01:29:20.935Z,5.4495
2019-05-15T01:29:40.640Z,5.4294
2019-05-15T01:29:44.966Z,5.3891
2019-05-15T01:29:50.679Z,5.4294
2019-05-15T01:30:00.340Z,5.4294
2019-05-15T01:30:09.989Z,5.4495
2019-05-15T01:30:19.675Z,5.4596
2019-05-15T01:30:29.380Z,5.4596
2019-05-15T01:30:41.227Z,5.4797
2019-05-15T01:30:51.915Z,5.4797
2019-05-15T01:30:59.457Z,5.4797
2019-05-15T01:31:11.335Z,5.4898
2019-05-15T01:31:21.007Z,5.5099
2019-05-15T01:31:30.709Z,5.5301
2019-05-15T01:31:40.393Z,5.5301
2019-05-15T01:31:50.128Z,5.5301
2019-05-15T01:31:59.831Z,5.5402
2019-05-15T01:32:10.504Z,5.5402
2019-05-15T01:32:20.167Z,5.5402
2019-05-15T01:32:29.860Z,5.5603
2019-05-15T01:32:40.539Z,5.5704
2019-05-15T01:32:50.363Z,5.5704
2019-05-15T01:33:00.120Z,5.5804
2019-05-15T01:33:10.924Z,5.5704
2019-05-15T01:33:20.607Z,5.5804
2019-05-15T01:33:30.319Z,5.5804
2019-05-15T01:33:39.983Z,5.5804
2019-05-15T01:33:49.665Z,5.5603
2019-05-15T01:33:59.367Z,5.6006
2019-05-15T01:34:11.296Z,5.6006
2019-05-15T01:34:21.028Z,5.5804
2019-05-15T01:34:30.725Z,5.5804
2019-05-15T01:34:40.438Z,5.5804
2019-05-15T01:34:52.245Z,5.5804
2019-05-15T01:35:00.794Z,5.6006
2019-05-15T01:35:10.489Z,5.5804
2019-05-15T01:35:20.215Z,5.6107
2019-05-15T01:35:29.885Z,5.5804
2019-05-15T01:35:39.559Z,5.6107
2019-05-15T01:35:49.288Z,5.6006
2019-05-15T01:36:00.019Z,5.6107
2019-05-15T01:36:09.735Z,5.6006
2019-05-15T01:36:19.471Z,5.6006
2019-05-15T01:36:30.357Z,5.6308
2019-05-15T01:36:40.038Z,5.6107
2019-05-15T01:36:56.171Z,5.6006
2019-05-15T01:37:00.637Z,5.6107
2019-05-15T01:37:10.281Z,5.6107
2019-05-15T01:37:19.969Z,5.6107
2019-05-15T01:37:29.810Z,5.6107
2019-05-15T01:37:39.504Z,5.6308
2019-05-15T01:37:51.339Z,5.6107
2019-05-15T01:38:01.040Z,5.6308
2019-05-15T01:38:10.701Z,5.6107
2019-05-15T01:38:19.219Z,5.6107
2019-05-15T01:38:31.133Z,5.6308
2019-05-15T01:38:40.813Z,5.6308
2019-05-15T01:38:50.484Z,5.6308
2019-05-15T01:39:00.210Z,5.6308
2019-05-15T01:39:11.002Z,5.6409
2019-05-15T01:39:20.744Z,5.6409
2019-05-15T01:39:30.422Z,5.6409
2019-05-15T01:39:39.234Z,5.6409
2019-05-15T01:39:49.910Z,5.6509
2019-05-15T01:39:59.640Z,5.6509
2019-05-15T01:40:09.370Z,5.6509
2019-05-15T01:40:21.248Z,5.6509
2019-05-15T01:40:30.950Z,5.6509
2019-05-15T01:40:40.654Z,5.6509
2019-05-15T01:40:49.330Z,5.6711
2019-05-15T01:41:01.200Z,5.6509
2019-05-15T01:41:10.906Z,5.6509
2019-05-15T01:41:20.612Z,5.6509
2019-05-15T01:41:30.324Z,5.6812
2019-05-15T01:41:40.052Z,5.6509
2019-05-15T01:41:49.852Z,5.6711
2019-05-15T01:41:59.552Z,5.6509
2019-05-15T01:42:09.240Z,5.6711
2019-05-15T01:42:21.090Z,5.6509
2019-05-15T01:42:30.752Z,5.6711
2019-05-15T01:42:40.444Z,5.6409
2019-05-15T01:42:50.115Z,5.6509
2019-05-15T01:42:59.810Z,5.6509
2019-05-15T01:43:09.490Z,5.6509
2019-05-15T01:43:21.358Z,5.6509
2019-05-15T01:43:31.029Z,5.6711
2019-05-15T01:43:40.742Z,5.6711
2019-05-15T01:43:50.440Z,5.6711
2019-05-15T01:44:00.150Z,5.6711
2019-05-15T01:44:09.882Z,5.6812
2019-05-15T01:44:19.633Z,5.7114
2019-05-15T01:44:29.340Z,5.7114
2019-05-15T01:44:41.252Z,5.7114
2019-05-15T01:44:50.960Z,5.7114
2019-05-15T01:45:00.692Z,5.7214
2019-05-15T01:45:09.222Z,5.7416
2019-05-15T01:45:21.175Z,5.7214
2019-05-15T01:45:30.974Z,5.7214
2019-05-15T01:45:40.705Z,5.7416
2019-05-15T01:45:50.412Z,5.7214
2019-05-15T01:46:00.104Z,5.7214
2019-05-15T01:46:20.702Z,5.7416
2019-05-15T01:46:39.754Z,5.7416
2019-05-15T01:46:49.404Z,5.7416
2019-05-15T01:47:00.092Z,5.7416
2019-05-15T01:47:20.572Z,5.7416
2019-05-15T01:47:30.274Z,5.7416
2019-05-15T01:47:39.956Z,5.7416
2019-05-15T01:47:49.620Z,5.7416
2019-05-15T01:47:59.292Z,5.7214
2019-05-15T01:48:11.113Z,5.7114
2019-05-15T01:48:20.763Z,5.7214
2019-05-15T01:48:30.430Z,5.7214
2019-05-15T01:48:40.084Z,5.7114
2019-05-15T01:48:49.750Z,5.7114
2019-05-15T01:49:00.602Z,5.7114
2019-05-15T01:49:10.315Z,5.7114
2019-05-15T01:49:20.081Z,5.7114
2019-05-15T01:49:29.772Z,5.7114
2019-05-15T01:49:39.472Z,5.7114
2019-05-15T01:49:51.359Z,5.7114
2019-05-15T01:50:01.056Z,5.7114
2019-05-15T01:50:09.656Z,5.7214
2019-05-15T01:50:19.362Z,5.7214
2019-05-15T01:50:31.254Z,5.7214
2019-05-15T01:50:40.950Z,5.7214
2019-05-15T01:50:50.647Z,5.7214
2019-05-15T01:51:00.610Z,5.7214
2019-05-15T01:51:10.149Z,5.7114
2019-05-15T01:51:19.846Z,5.7416
2019-05-15T01:51:29.553Z,5.7214
2019-05-15T01:51:39.244Z,5.7114
2019-05-15T01:51:51.115Z,5.7214
2019-05-15T01:51:59.925Z,5.7114
2019-05-15T01:52:09.655Z,5.7214
2019-05-15T01:52:19.364Z,5.7114
2019-05-15T01:52:31.226Z,5.7114
2019-05-15T01:52:40.919Z,5.7214
2019-05-15T01:52:59.312Z,5.7114
2019-05-15T01:53:11.223Z,5.6812
2019-05-15T01:53:20.949Z,5.6812
2019-05-15T01:53:30.613Z,5.6812
2019-05-15T01:53:40.282Z,5.6812
2019-05-15T01:53:49.963Z,5.6711
2019-05-15T01:53:59.644Z,5.6812
2019-05-15T01:54:09.363Z,5.6812
2019-05-15T01:54:21.286Z,5.6812
2019-05-15T01:54:32.284Z,5.6812
2019-05-15T01:54:39.854Z,5.6509
2019-05-15T01:54:54.900Z,5.6711
2019-05-15T01:54:59.387Z,5.6711
2019-05-15T01:55:11.259Z,5.6509
2019-05-15T01:55:19.795Z,5.6409
2019-05-15T01:55:29.497Z,5.6509
2019-05-15T01:55:41.357Z,5.6409
2019-05-15T01:55:51.235Z,5.6509
2019-05-15T01:56:00.933Z,5.6509
2019-05-15T01:56:11.635Z,5.6509
2019-05-15T01:56:21.374Z,5.6509
2019-05-15T01:56:31.067Z,5.6711
2019-05-15T01:56:40.791Z,5.6509
2019-05-15T01:56:49.685Z,5.6711
2019-05-15T01:56:59.396Z,5.6711
2019-05-15T01:57:11.235Z,5.6509
2019-05-15T01:57:20.927Z,5.6509
2019-05-15T01:57:30.606Z,5.6711
2019-05-15T01:57:40.317Z,5.6812
2019-05-15T01:57:49.975Z,5.6509
2019-05-15T01:57:59.670Z,5.6711
2019-05-15T01:58:09.510Z,5.6711
2019-05-15T01:58:19.235Z,5.6812
2019-05-15T01:58:30.096Z,5.6711
2019-05-15T01:58:39.837Z,5.6711
2019-05-15T01:58:49.536Z,5.6711
2019-05-15T01:58:59.245Z,5.6711
2019-05-15T01:59:11.107Z,5.6812
2019-05-15T01:59:20.824Z,5.6711
2019-05-15T01:59:30.545Z,5.6711
2019-05-15T01:59:53.926Z,5.6711
2019-05-15T02:00:00.857Z,5.6509
2019-05-15T02:00:10.731Z,5.6509
2019-05-15T02:00:20.423Z,5.6409
2019-05-15T02:00:30.113Z,5.6509
2019-05-15T02:00:40.803Z,5.6409
2019-05-15T02:00:50.482Z,5.6711
2019-05-15T02:01:01.234Z,5.6509
2019-05-15T02:01:11.900Z,5.6409
2019-05-15T02:01:20.401Z,5.6509
2019-05-15T02:01:35.471Z,5.6409
2019-05-15T02:01:40.160Z,5.6409
2019-05-15T02:01:49.828Z,5.6308
2019-05-15T02:01:59.500Z,5.6308
2019-05-15T02:02:11.344Z,5.6107
2019-05-15T02:02:21.023Z,5.6308
2019-05-15T02:02:30.701Z,5.6308
2019-05-15T02:02:39.413Z,5.6308
2019-05-15T02:02:51.269Z,5.6308
2019-05-15T02:03:00.949Z,5.6107
2019-05-15T02:03:10.670Z,5.6308
2019-05-15T02:03:19.366Z,5.6308
2019-05-15T02:03:31.237Z,5.6308
2019-05-15T02:03:41.528Z,5.6308
2019-05-15T02:03:51.211Z,5.6308
2019-05-15T02:04:05.465Z,5.6409
2019-05-15T02:04:09.793Z,5.6308
2019-05-15T02:04:19.836Z,5.6308
2019-05-15T02:04:30.721Z,5.6308
2019-05-15T02:04:40.381Z,5.6409
2019-05-15T02:04:50.062Z,5.6409
2019-05-15T02:04:59.737Z,5.6409
2019-05-15T02:05:09.479Z,5.6409
2019-05-15T02:05:21.390Z,5.6409
2019-05-15T02:05:31.074Z,5.6409
2019-05-15T02:05:41.762Z,5.6509
2019-05-15T02:05:49.274Z,5.6509
2019-05-15T02:06:01.121Z,5.6409
2019-05-15T02:06:09.632Z,5.6409
2019-05-15T02:06:20.324Z,5.6509
2019-05-15T02:06:30.016Z,5.6509
2019-05-15T02:06:39.711Z,5.6409
2019-05-15T02:06:49.405Z,5.6409
2019-05-15T02:07:00.171Z,5.6509
2019-05-15T02:07:09.944Z,5.6409
2019-05-15T02:07:19.693Z,5.6409
2019-05-15T02:07:29.404Z,5.6409
2019-05-15T02:07:41.290Z,5.6409
2019-05-15T02:07:50.974Z,5.6409
2019-05-15T02:08:00.673Z,5.6409